Addison, Texas
Current Conditions -  °F | °C
As of 5:47 PM on Saturday 22 Nov 2014 (Local Time) from KADS Reporting Station
Moderate Rain Moderate Rain  
Wind Chill: 61°   Ceiling: 4000
Heat Index: 61°   Visibility: 4mi
Dew Point: 59°   Wind: 14mph
Humidity: 94%   Direction: 140°SE
Pressure: 29.85"   Gusts: 23mph
Location:  32.95°N, 96.82°W
Report Text: KADS 222347Z 14012G20KT 4SM RA SCT009 BKN040 OVC050 16/15 A2985
Loading
Personal Weather Stations






























Interactive Weather Map New forecast layout! Learn more

10-Day Weather Forecast

Advertisements
Track Severe Weather on mobile